createdAt,value
2018-06-10T00:04:36.943Z,98.00
2018-06-10T00:09:31.498Z,97.80
2018-06-10T00:14:26.040Z,97.80
2018-06-10T00:19:20.606Z,98.20
2018-06-10T00:24:15.163Z,98.40
2018-06-10T00:29:14.921Z,98.50
2018-06-10T00:34:09.479Z,98.20
2018-06-10T00:39:04.167Z,98.50
2018-06-10T00:43:58.715Z,98.70
2018-06-10T00:48:53.243Z,98.80
2018-06-10T00:53:47.782Z,98.70
2018-06-10T00:58:42.306Z,98.80
2018-06-10T01:03:36.876Z,98.90
2018-06-10T01:08:31.470Z,99.40
2018-06-10T01:13:26.007Z,99.60
2018-06-10T01:18:20.538Z,99.20
2018-06-10T01:23:15.093Z,99.20
2018-06-10T01:28:09.658Z,99.50
2018-06-10T01:33:04.190Z,99.60
2018-06-10T01:37:58.734Z,99.60
2018-06-10T01:42:53.254Z,99.80
2018-06-10T01:47:47.795Z,99.70
2018-06-10T01:52:42.374Z,99.70
2018-06-10T01:57:36.901Z,99.70
2018-06-10T02:02:31.470Z,99.80
2018-06-10T02:07:26.039Z,99.40
2018-06-10T02:12:20.590Z,99.50
2018-06-10T02:17:15.162Z,99.40
2018-06-10T02:22:09.710Z,99.40
2018-06-10T02:27:04.248Z,99.50
2018-06-10T02:31:58.805Z,99.60
2018-06-10T02:36:53.376Z,99.50
2018-06-10T02:41:47.936Z,99.90
2018-06-10T02:46:42.463Z,99.70
2018-06-10T02:51:36.996Z,99.60
2018-06-10T02:56:31.622Z,99.80
2018-06-10T03:01:26.141Z,99.60
2018-06-10T03:06:20.687Z,99.60
2018-06-10T03:11:15.218Z,99.90
2018-06-10T03:16:09.739Z,99.90
2018-06-10T03:21:04.274Z,99.90
2018-06-10T03:25:58.808Z,99.90
2018-06-10T03:30:53.351Z,99.50
2018-06-10T03:35:47.911Z,99.60
2018-06-10T03:40:42.523Z,99.90
2018-06-10T03:45:37.054Z,99.80
2018-06-10T03:50:31.617Z,99.90
2018-06-10T03:55:26.155Z,99.60
2018-06-10T04:00:20.715Z,99.80
2018-06-10T04:05:15.282Z,99.90
2018-06-10T04:10:09.834Z,99.90
2018-06-10T04:15:04.433Z,99.90
2018-06-10T04:19:59.014Z,99.90
2018-06-10T04:24:53.511Z,99.90
2018-06-10T04:29:48.058Z,99.90
2018-06-10T04:34:42.585Z,99.90
2018-06-10T04:39:37.140Z,99.70
2018-06-10T04:44:31.669Z,99.40
2018-06-10T04:49:26.216Z,99.30
2018-06-10T04:54:20.749Z,98.40
2018-06-10T04:59:15.268Z,97.80
2018-06-10T05:04:09.822Z,97.20
2018-06-10T05:09:05.732Z,96.70
2018-06-10T05:14:00.272Z,96.20
2018-06-10T05:18:54.830Z,95.90
2018-06-10T05:23:49.368Z,95.40
2018-06-10T05:28:43.925Z,94.80
2018-06-10T05:38:32.794Z,93.80
2018-06-10T05:43:27.347Z,94.10
2018-06-10T05:48:21.879Z,94.10
2018-06-10T05:53:16.450Z,93.70
2018-06-10T05:58:11.015Z,94.10
2018-06-10T06:03:05.629Z,94.60
2018-06-10T06:08:00.184Z,95.80
2018-06-10T06:17:48.971Z,94.80
2018-06-10T06:22:43.539Z,94.20
2018-06-10T06:27:38.090Z,94.30
2018-06-10T06:32:33.731Z,94.30
2018-06-10T06:37:28.377Z,93.70
2018-06-10T06:42:22.899Z,93.30
2018-06-10T06:47:17.468Z,92.60
2018-06-10T06:52:12.062Z,92.30
2018-06-10T06:57:06.646Z,92.90
2018-06-10T07:02:01.182Z,93.00
2018-06-10T07:06:55.727Z,92.90
2018-06-10T07:11:50.344Z,94.20
2018-06-10T07:16:44.940Z,95.40
2018-06-10T07:21:39.479Z,96.20
2018-06-10T07:26:34.027Z,95.30
2018-06-10T07:31:29.438Z,93.50
2018-06-10T07:36:24.027Z,92.20
2018-06-10T07:46:12.832Z,90.90
2018-06-10T07:56:01.615Z,90.80
2018-06-10T08:00:56.160Z,85.40
2018-06-10T08:05:50.770Z,85.10
2018-06-10T08:10:45.327Z,85.20
2018-06-10T08:15:39.878Z,82.80
2018-06-10T08:20:34.443Z,81.50
2018-06-10T08:25:29.021Z,82.30
2018-06-10T08:30:23.576Z,80.00
2018-06-10T08:35:18.135Z,81.00
2018-06-10T08:40:12.714Z,81.10
2018-06-10T08:50:01.579Z,79.00
2018-06-10T08:54:56.143Z,79.10
2018-06-10T08:59:50.710Z,78.10
2018-06-10T09:04:45.327Z,75.80
2018-06-10T09:09:39.907Z,77.60
2018-06-10T09:14:34.455Z,73.70
2018-06-10T09:19:29.043Z,77.20
2018-06-10T09:24:23.654Z,74.10
2018-06-10T09:29:18.378Z,74.00
2018-06-10T09:34:12.978Z,72.00
2018-06-10T09:39:09.078Z,72.70
2018-06-10T09:44:04.502Z,73.30
2018-06-10T09:48:59.062Z,72.60
2018-06-10T09:53:53.763Z,69.50
2018-06-10T09:58:48.422Z,72.00
2018-06-10T10:03:43.031Z,67.10
2018-06-10T10:08:37.577Z,69.00
2018-06-10T10:13:32.169Z,68.40
2018-06-10T10:18:26.772Z,69.60
2018-06-10T10:23:21.337Z,70.70
2018-06-10T10:28:15.943Z,65.40
2018-06-10T10:33:10.520Z,68.20
2018-06-10T10:42:59.408Z,61.60
2018-06-10T10:47:53.988Z,66.50
2018-06-10T10:52:48.537Z,63.50
2018-06-10T10:57:43.170Z,62.80
2018-06-10T11:02:38.409Z,63.90
2018-06-10T11:07:32.957Z,61.10
2018-06-10T11:12:27.682Z,61.30
2018-06-10T11:17:22.255Z,60.30
2018-06-10T11:22:16.836Z,62.80
2018-06-10T11:27:11.465Z,59.30
2018-06-10T11:32:06.530Z,59.20
2018-06-10T11:37:01.111Z,55.90
2018-06-10T11:41:55.688Z,60.90
2018-06-10T11:46:50.263Z,56.20
2018-06-10T11:56:39.097Z,56.90
2018-06-10T12:01:33.659Z,57.20
2018-06-10T12:06:28.316Z,56.80
2018-06-10T12:11:22.847Z,59.30
2018-06-10T12:16:17.450Z,59.60
2018-06-10T12:21:12.004Z,54.90
2018-06-10T12:26:06.604Z,59.10
2018-06-10T12:31:01.203Z,58.40
2018-06-10T12:35:55.834Z,60.70
2018-06-10T12:40:50.448Z,60.70
2018-06-10T12:45:45.021Z,61.80
2018-06-10T12:50:39.571Z,61.50
2018-06-10T12:55:34.183Z,59.40
2018-06-10T13:00:28.818Z,58.40
2018-06-10T13:05:23.350Z,56.40
2018-06-10T13:10:17.963Z,57.00
2018-06-10T13:15:12.526Z,58.00
2018-06-10T13:20:07.166Z,56.00
2018-06-10T13:25:01.742Z,55.40
2018-06-10T13:29:56.299Z,59.50
2018-06-10T13:34:50.880Z,58.20
2018-06-10T13:39:45.438Z,61.30
2018-06-10T13:44:40.019Z,60.20
2018-06-10T13:54:29.532Z,62.20
2018-06-10T13:59:24.093Z,58.20
2018-06-10T14:04:18.642Z,55.60
2018-06-10T14:09:13.190Z,58.30
2018-06-10T14:14:07.754Z,53.80
2018-06-10T14:19:02.299Z,56.50
2018-06-10T14:23:56.868Z,55.80
2018-06-10T14:28:51.418Z,58.40
2018-06-10T14:33:45.988Z,51.40
2018-06-10T14:38:40.590Z,53.30
2018-06-10T14:43:35.230Z,51.80
2018-06-10T14:53:24.019Z,55.00
2018-06-10T14:58:18.608Z,53.70
2018-06-10T15:03:13.158Z,53.00
2018-06-10T15:08:07.742Z,52.60
2018-06-10T15:13:02.305Z,53.80
2018-06-10T15:17:56.835Z,55.80
2018-06-10T15:22:51.465Z,55.60
2018-06-10T15:27:46.042Z,56.20
2018-06-10T15:32:40.597Z,56.20
2018-06-10T15:37:35.196Z,55.30
2018-06-10T15:42:29.768Z,54.00
2018-06-10T15:47:24.319Z,52.80
2018-06-10T15:52:18.908Z,56.40
2018-06-10T15:57:13.491Z,57.30
2018-06-10T16:02:08.091Z,56.20
2018-06-10T16:07:02.650Z,53.30
2018-06-10T16:11:57.187Z,56.00
2018-06-10T16:16:51.787Z,57.40
2018-06-10T16:21:46.347Z,52.50
2018-06-10T16:26:40.929Z,54.60
2018-06-10T16:31:35.540Z,57.60
2018-06-10T16:36:30.158Z,57.20
2018-06-10T16:41:24.692Z,58.20
2018-06-10T16:46:19.264Z,60.00
2018-06-10T16:51:13.872Z,58.40
2018-06-10T16:56:08.436Z,60.10
2018-06-10T17:01:03.030Z,62.30
2018-06-10T17:05:57.591Z,59.30
2018-06-10T17:10:52.227Z,61.80
2018-06-10T17:15:46.825Z,61.20
2018-06-10T17:20:41.426Z,61.30
2018-06-10T17:30:30.278Z,63.50
2018-06-10T17:35:24.878Z,62.80
2018-06-10T17:40:19.494Z,65.50
2018-06-10T17:45:14.079Z,64.50
2018-06-10T17:50:08.717Z,64.40
2018-06-10T17:55:03.374Z,65.90
2018-06-10T18:04:52.220Z,69.30
2018-06-10T18:09:46.808Z,69.10
2018-06-10T18:14:41.431Z,69.20
2018-06-10T18:19:36.053Z,66.80
2018-06-10T18:24:30.605Z,65.90
2018-06-10T18:29:25.145Z,63.00
2018-06-10T18:34:19.720Z,64.40
2018-06-10T18:44:08.688Z,68.50
2018-06-10T18:49:03.297Z,69.40
2018-06-10T18:53:57.930Z,70.90
2018-06-10T18:58:52.573Z,72.20
2018-06-10T19:03:47.179Z,73.70
2018-06-10T19:08:41.779Z,76.10
2018-06-10T19:13:36.374Z,78.90
2018-06-10T19:18:30.952Z,81.10
2018-06-10T19:23:25.591Z,83.40
2018-06-10T19:28:20.220Z,81.80
2018-06-10T19:33:14.810Z,82.10
2018-06-10T19:38:09.385Z,82.90
2018-06-10T19:43:04.942Z,82.80
2018-06-10T19:47:59.575Z,83.40
2018-06-10T19:52:54.180Z,85.40
2018-06-10T19:57:48.824Z,85.10
2018-06-10T20:02:43.418Z,85.20
2018-06-10T20:07:38.042Z,85.40
2018-06-10T20:12:32.652Z,85.50
2018-06-10T20:17:27.281Z,85.90
2018-06-10T20:27:16.150Z,86.50
2018-06-10T20:32:10.734Z,85.40
2018-06-10T20:37:05.380Z,87.10
2018-06-10T20:41:59.998Z,84.80
2018-06-10T20:46:54.595Z,85.60
2018-06-10T20:51:49.185Z,85.80
2018-06-10T20:56:43.751Z,87.50
2018-06-10T21:01:38.347Z,88.60
2018-06-10T21:06:32.977Z,90.00
2018-06-10T21:11:27.593Z,90.60
2018-06-10T21:16:22.157Z,91.80
2018-06-10T21:21:16.720Z,91.50
2018-06-10T21:26:11.324Z,91.90
2018-06-10T21:31:05.891Z,91.50
2018-06-10T21:36:00.490Z,91.80
2018-06-10T21:40:55.080Z,92.30
2018-06-10T21:45:49.748Z,91.90
2018-06-10T21:50:44.304Z,92.10
2018-06-10T21:55:38.924Z,92.10
2018-06-10T22:00:33.476Z,92.00
2018-06-10T22:05:28.067Z,92.20
2018-06-10T22:10:22.642Z,92.60
2018-06-10T22:15:17.223Z,92.30
2018-06-10T22:20:11.818Z,92.60
2018-06-10T22:25:06.411Z,92.20
2018-06-10T22:30:00.982Z,92.80
2018-06-10T22:39:49.866Z,92.50
2018-06-10T22:44:44.421Z,93.10
2018-06-10T22:49:38.977Z,93.10
2018-06-10T22:54:44.058Z,92.80
2018-06-10T22:59:39.526Z,93.40
2018-06-10T23:04:34.107Z,93.30
2018-06-10T23:09:28.698Z,93.20
2018-06-10T23:14:23.229Z,93.50
2018-06-10T23:19:18.409Z,93.70
2018-06-10T23:24:13.021Z,94.00
2018-06-10T23:29:07.615Z,94.00
2018-06-10T23:34:02.463Z,94.80
2018-06-10T23:38:57.051Z,94.60
2018-06-10T23:43:51.570Z,94.90
2018-06-10T23:48:46.125Z,94.00
2018-06-10T23:53:40.681Z,94.80
2018-06-10T23:58:35.229Z,95.20
